createdAt,value
2018-06-23T00:02:09.818Z,96.30
2018-06-23T00:04:37.945Z,96.40
2018-06-23T00:07:06.042Z,96.60
2018-06-23T00:09:34.158Z,96.70
2018-06-23T00:12:02.278Z,97.00
2018-06-23T00:14:30.377Z,97.30
2018-06-23T00:16:58.513Z,97.30
2018-06-23T00:19:26.942Z,97.70
2018-06-23T00:21:55.079Z,97.90
2018-06-23T00:24:23.181Z,98.10
2018-06-23T00:26:51.274Z,98.10
2018-06-23T00:29:19.385Z,98.20
2018-06-23T00:31:47.519Z,98.20
2018-06-23T00:34:15.660Z,98.10
2018-06-23T00:36:43.748Z,98.30
2018-06-23T00:39:11.845Z,98.40
2018-06-23T00:41:39.957Z,98.40
2018-06-23T00:44:08.086Z,98.50
2018-06-23T00:46:36.229Z,98.50
2018-06-23T00:51:32.272Z,98.50
2018-06-23T00:56:28.257Z,98.60
2018-06-23T00:59:07.831Z,98.60
2018-06-23T01:01:35.975Z,98.70
2018-06-23T01:04:04.114Z,98.80
2018-06-23T01:06:32.234Z,99.10
2018-06-23T01:09:00.385Z,99.40
2018-06-23T01:11:28.507Z,99.50
2018-06-23T01:13:56.650Z,99.40
2018-06-23T01:16:24.799Z,99.40
2018-06-23T01:18:52.941Z,99.40
2018-06-23T01:21:21.054Z,99.50
2018-06-23T01:23:49.150Z,99.50
2018-06-23T01:26:17.277Z,99.20
2018-06-23T01:28:45.406Z,98.90
2018-06-23T01:31:13.537Z,98.60
2018-06-23T01:33:41.633Z,98.40
2018-06-23T01:36:09.733Z,98.10
2018-06-23T01:38:37.854Z,97.50
2018-06-23T01:41:06.079Z,97.20
2018-06-23T01:43:34.192Z,97.10
2018-06-23T01:46:02.314Z,96.80
2018-06-23T01:48:30.490Z,96.50
2018-06-23T01:50:59.466Z,96.30
2018-06-23T01:53:27.601Z,96.20
2018-06-23T01:55:55.775Z,96.00
2018-06-23T01:58:23.882Z,95.90
2018-06-23T02:00:52.009Z,95.90
2018-06-23T02:03:20.297Z,96.10
2018-06-23T02:05:48.434Z,96.20
2018-06-23T02:08:16.565Z,96.10
2018-06-23T02:10:44.675Z,96.00
2018-06-23T02:13:12.803Z,96.10
2018-06-23T02:15:46.239Z,96.20
2018-06-23T02:18:19.843Z,96.40
2018-06-23T02:20:53.418Z,96.70
2018-06-23T02:23:27.026Z,97.20
2018-06-23T02:26:00.674Z,97.30
2018-06-23T02:28:34.166Z,97.30
2018-06-23T02:31:07.550Z,97.50
2018-06-23T02:33:41.163Z,97.80
2018-06-23T02:36:09.311Z,97.90
2018-06-23T02:38:37.413Z,97.80
2018-06-23T02:41:05.570Z,97.70
2018-06-23T02:43:33.686Z,97.80
2018-06-23T02:46:01.829Z,97.90
2018-06-23T02:48:29.945Z,98.00
2018-06-23T02:53:25.957Z,98.40
2018-06-23T02:55:54.119Z,98.60
2018-06-23T02:58:22.295Z,98.90
2018-06-23T03:00:50.413Z,99.00
2018-06-23T03:03:18.530Z,99.10
2018-06-23T03:05:46.680Z,99.20
2018-06-23T03:08:14.811Z,99.20
2018-06-23T03:10:42.930Z,99.20
2018-06-23T03:13:11.027Z,99.30
2018-06-23T03:15:39.175Z,99.40
2018-06-23T03:18:07.266Z,99.50
2018-06-23T03:20:35.358Z,99.70
2018-06-23T03:23:03.482Z,99.70
2018-06-23T03:25:31.575Z,99.80
2018-06-23T03:27:59.694Z,99.90
2018-06-23T03:30:27.800Z,99.90
2018-06-23T03:32:55.972Z,99.90
2018-06-23T03:35:24.122Z,99.90
2018-06-23T03:40:20.168Z,99.90
2018-06-23T03:45:16.194Z,99.90
2018-06-23T03:47:44.301Z,99.90
2018-06-23T03:50:12.400Z,99.90
2018-06-23T03:52:40.538Z,99.90
2018-06-23T03:55:08.691Z,99.90
2018-06-23T03:57:36.803Z,99.90
2018-06-23T04:00:04.905Z,99.90
2018-06-23T04:02:33.028Z,99.90
2018-06-23T04:05:01.139Z,99.90
2018-06-23T04:07:29.250Z,99.90
2018-06-23T04:09:57.365Z,99.90
2018-06-23T04:12:25.503Z,99.90
2018-06-23T04:14:53.623Z,99.90
2018-06-23T04:17:21.726Z,99.90
2018-06-23T04:19:49.842Z,99.90
2018-06-23T04:22:17.955Z,99.90
2018-06-23T04:24:46.114Z,99.90
2018-06-23T04:27:14.237Z,99.90
2018-06-23T04:29:42.378Z,99.90
2018-06-23T04:32:10.486Z,99.90
2018-06-23T04:34:38.585Z,99.90
2018-06-23T04:37:06.710Z,99.60
2018-06-23T04:39:34.824Z,99.10
2018-06-23T04:42:02.915Z,98.30
2018-06-23T04:44:31.111Z,98.10
2018-06-23T04:46:59.243Z,97.90
2018-06-23T04:49:27.370Z,97.50
2018-06-23T04:51:55.479Z,97.20
2018-06-23T04:54:23.623Z,96.60
2018-06-23T04:56:52.854Z,96.20
2018-06-23T04:59:20.954Z,96.00
2018-06-23T05:01:49.067Z,96.00
2018-06-23T05:04:17.195Z,96.30
2018-06-23T05:06:45.326Z,95.90
2018-06-23T05:09:13.494Z,95.90
2018-06-23T05:11:41.647Z,96.10
2018-06-23T05:14:09.778Z,95.70
2018-06-23T05:16:37.895Z,95.40
2018-06-23T05:19:06.159Z,95.20
2018-06-23T05:21:34.301Z,95.10
2018-06-23T05:24:02.464Z,94.80
2018-06-23T05:26:30.614Z,94.40
2018-06-23T05:28:58.718Z,93.80
2018-06-23T05:31:26.855Z,93.40
2018-06-23T05:33:54.961Z,92.80
2018-06-23T05:36:23.126Z,92.30
2018-06-23T05:38:51.302Z,91.50
2018-06-23T05:41:19.506Z,91.20
2018-06-23T05:43:47.635Z,90.80
2018-06-23T05:46:15.770Z,90.90
2018-06-23T05:48:43.889Z,90.50
2018-06-23T05:51:12.044Z,90.40
2018-06-23T05:53:40.160Z,90.20
2018-06-23T05:56:08.320Z,89.20
2018-06-23T05:58:36.494Z,88.00
2018-06-23T06:01:04.610Z,86.80
2018-06-23T06:03:32.734Z,88.00
2018-06-23T06:06:00.892Z,88.90
2018-06-23T06:08:29.014Z,89.90
2018-06-23T06:13:25.031Z,90.50
2018-06-23T06:15:54.504Z,90.50
2018-06-23T06:18:22.606Z,90.70
2018-06-23T06:20:50.726Z,90.60
2018-06-23T06:23:18.995Z,90.00
2018-06-23T06:25:47.101Z,89.50
2018-06-23T06:28:16.240Z,87.70
2018-06-23T06:30:44.372Z,86.00
2018-06-23T06:33:12.505Z,85.10
2018-06-23T06:35:40.613Z,83.80
2018-06-23T06:38:08.792Z,83.60
2018-06-23T06:40:36.997Z,82.70
2018-06-23T06:45:33.399Z,79.20
2018-06-23T06:48:01.564Z,77.30
2018-06-23T06:50:29.854Z,76.70
2018-06-23T06:52:58.023Z,73.10
2018-06-23T06:55:26.188Z,71.60
2018-06-23T06:57:54.381Z,69.70
2018-06-23T07:00:22.623Z,68.90
2018-06-23T07:02:50.814Z,67.90
2018-06-23T07:05:19.043Z,67.60
2018-06-23T07:07:47.269Z,64.80
2018-06-23T07:10:15.416Z,62.00
2018-06-23T07:12:43.557Z,60.50
2018-06-23T07:15:14.625Z,58.50
2018-06-23T07:17:42.951Z,57.50
2018-06-23T07:20:11.315Z,56.20
2018-06-23T07:22:39.872Z,55.10
2018-06-23T07:25:08.043Z,53.50
2018-06-23T07:27:36.197Z,52.50
2018-06-23T07:30:05.312Z,51.40
2018-06-23T07:32:33.497Z,50.00
2018-06-23T07:35:01.725Z,49.10
2018-06-23T07:37:29.887Z,48.50
2018-06-23T07:39:58.073Z,47.40
2018-06-23T07:42:26.354Z,45.10
2018-06-23T07:44:54.452Z,44.30
2018-06-23T07:47:22.617Z,44.60
2018-06-23T07:49:50.777Z,45.80
2018-06-23T07:52:18.956Z,48.00
2018-06-23T07:54:47.113Z,49.60
2018-06-23T07:57:15.259Z,49.90
2018-06-23T07:59:43.417Z,50.00
2018-06-23T08:02:11.720Z,52.10
2018-06-23T08:04:39.886Z,51.60
2018-06-23T08:07:08.036Z,51.60
2018-06-23T08:09:36.239Z,52.10
2018-06-23T08:12:04.408Z,52.20
2018-06-23T08:14:32.583Z,51.90
2018-06-23T08:17:00.771Z,51.50
2018-06-23T08:19:28.937Z,51.10
2018-06-23T08:21:57.079Z,50.00
2018-06-23T08:24:25.215Z,48.00
2018-06-23T08:26:53.382Z,46.90
2018-06-23T08:29:21.812Z,47.50
2018-06-23T08:31:50.124Z,47.90
2018-06-23T08:34:18.290Z,46.40
2018-06-23T08:36:46.436Z,47.80
2018-06-23T08:39:14.613Z,48.10
2018-06-23T08:41:42.764Z,48.90
2018-06-23T08:44:11.014Z,49.50
2018-06-23T08:46:39.216Z,47.10
2018-06-23T08:49:07.379Z,47.40
2018-06-23T08:51:35.575Z,49.10
2018-06-23T08:54:03.725Z,49.00
2018-06-23T08:56:31.982Z,47.90
2018-06-23T08:59:00.175Z,48.40
2018-06-23T09:01:28.336Z,47.40
2018-06-23T09:03:56.520Z,44.60
2018-06-23T09:06:24.700Z,43.50
2018-06-23T09:08:52.931Z,41.70
2018-06-23T09:11:21.177Z,39.60
2018-06-23T09:13:49.323Z,38.70
2018-06-23T09:16:17.492Z,38.10
2018-06-23T09:18:47.790Z,39.20
2018-06-23T09:21:16.155Z,40.30
2018-06-23T09:23:44.671Z,41.40
2018-06-23T09:26:12.828Z,42.70
2018-06-23T09:28:41.085Z,44.10
2018-06-23T09:31:09.245Z,45.50
2018-06-23T09:33:37.418Z,45.50
2018-06-23T09:36:05.585Z,46.40
2018-06-23T09:38:33.751Z,48.00
2018-06-23T09:41:01.923Z,48.40
2018-06-23T09:43:30.401Z,48.70
2018-06-23T09:45:58.669Z,48.50
2018-06-23T09:48:26.716Z,46.80
2018-06-23T09:50:54.902Z,46.40
2018-06-23T09:53:23.088Z,43.30
2018-06-23T09:55:51.325Z,43.40
2018-06-23T09:58:19.465Z,42.90
2018-06-23T10:00:47.629Z,42.40
2018-06-23T10:03:15.868Z,42.70
2018-06-23T10:05:43.977Z,40.50
2018-06-23T10:08:12.237Z,39.60
2018-06-23T10:10:40.431Z,41.60
2018-06-23T10:13:08.552Z,40.50
2018-06-23T10:15:36.876Z,40.30
2018-06-23T10:18:05.049Z,40.20
2018-06-23T10:20:33.228Z,39.90
2018-06-23T10:23:01.394Z,40.20
2018-06-23T10:25:29.672Z,40.00
2018-06-23T10:27:57.887Z,41.00
2018-06-23T10:30:26.052Z,41.30
2018-06-23T10:32:54.243Z,41.80
2018-06-23T10:35:22.420Z,41.50
2018-06-23T10:37:50.684Z,42.30
2018-06-23T10:40:18.847Z,41.70
2018-06-23T10:42:47.039Z,40.20
2018-06-23T10:45:15.296Z,39.60
2018-06-23T10:47:43.487Z,38.50
2018-06-23T10:50:11.651Z,36.70
2018-06-23T10:52:39.836Z,37.10
2018-06-23T10:55:08.007Z,35.50
2018-06-23T10:57:36.173Z,34.30
2018-06-23T11:00:04.952Z,34.80
2018-06-23T11:05:01.222Z,36.00
2018-06-23T11:07:29.209Z,37.30
2018-06-23T11:09:57.450Z,38.50
2018-06-23T11:12:25.611Z,38.80
2018-06-23T11:14:53.809Z,40.50
2018-06-23T11:17:22.083Z,39.90
2018-06-23T11:19:50.250Z,38.00
2018-06-23T11:22:18.407Z,36.50
2018-06-23T11:24:46.603Z,35.80
2018-06-23T11:27:14.797Z,33.80
2018-06-23T11:29:43.319Z,35.50
2018-06-23T11:34:39.432Z,36.40
2018-06-23T11:37:07.680Z,37.70
2018-06-23T11:39:36.052Z,39.00
2018-06-23T11:42:04.218Z,40.20
2018-06-23T11:44:32.377Z,41.60
2018-06-23T11:47:00.680Z,40.50
2018-06-23T11:49:28.893Z,38.70
2018-06-23T11:51:57.070Z,35.80
2018-06-23T11:54:25.671Z,35.20
2018-06-23T11:56:53.927Z,35.90
2018-06-23T11:59:22.186Z,34.70
2018-06-23T12:01:50.471Z,31.90
2018-06-23T12:04:22.455Z,32.70
2018-06-23T12:06:50.860Z,32.60
2018-06-23T12:09:19.675Z,35.20
2018-06-23T12:11:47.903Z,33.60
2018-06-23T12:14:16.075Z,33.10
2018-06-23T12:16:44.347Z,32.40
2018-06-23T12:19:12.527Z,31.00
2018-06-23T12:21:40.856Z,33.10
2018-06-23T12:24:09.231Z,31.50
2018-06-23T12:29:05.747Z,33.60
2018-06-23T12:31:33.919Z,33.30
2018-06-23T12:34:02.158Z,32.40
2018-06-23T12:36:42.470Z,32.20
2018-06-23T12:39:11.608Z,32.80
2018-06-23T12:41:40.297Z,33.00
2018-06-23T12:44:09.048Z,32.20
2018-06-23T12:46:37.439Z,30.20
2018-06-23T12:49:05.628Z,30.60
2018-06-23T12:51:34.071Z,31.30
2018-06-23T12:54:02.256Z,30.30
2018-06-23T12:56:30.488Z,29.80
2018-06-23T12:58:58.703Z,30.30
2018-06-23T13:01:26.947Z,29.20
2018-06-23T13:03:55.124Z,30.40
2018-06-23T13:06:23.298Z,30.10
2018-06-23T13:08:51.504Z,30.70
2018-06-23T13:11:19.664Z,30.70
2018-06-23T13:16:15.852Z,31.10
2018-06-23T13:18:44.222Z,30.50
2018-06-23T13:21:12.377Z,32.00
2018-06-23T13:23:40.549Z,31.90
2018-06-23T13:26:08.743Z,30.70
2018-06-23T13:28:37.171Z,30.00
2018-06-23T13:31:05.380Z,29.00
2018-06-23T13:33:33.556Z,29.30
2018-06-23T13:36:01.722Z,29.20
2018-06-23T13:38:29.908Z,28.20
2018-06-23T13:41:01.921Z,27.60
2018-06-23T13:43:30.103Z,26.90
2018-06-23T13:48:30.473Z,26.80
2018-06-23T13:51:02.324Z,26.90
2018-06-23T13:53:30.477Z,28.50
2018-06-23T13:55:58.654Z,27.40
2018-06-23T13:58:27.037Z,27.60
2018-06-23T14:00:55.324Z,28.20
2018-06-23T14:03:24.066Z,27.80
2018-06-23T14:05:52.225Z,27.60
2018-06-23T14:08:20.465Z,26.80
2018-06-23T14:10:48.692Z,27.40
2018-06-23T14:13:16.896Z,27.10
2018-06-23T14:15:45.112Z,27.40
2018-06-23T14:18:13.344Z,27.30
2018-06-23T14:20:41.500Z,26.30
2018-06-23T14:23:09.822Z,25.80
2018-06-23T14:25:41.020Z,26.00
2018-06-23T14:28:09.233Z,26.30
2018-06-23T14:30:37.588Z,25.80
2018-06-23T14:33:05.800Z,26.20
2018-06-23T14:35:33.992Z,27.10
2018-06-23T14:38:02.167Z,26.60
2018-06-23T14:40:30.347Z,26.50
2018-06-23T14:42:58.536Z,26.90
2018-06-23T14:45:26.715Z,26.50
2018-06-23T14:47:54.937Z,26.40
2018-06-23T14:50:23.130Z,26.50
2018-06-23T14:55:19.296Z,26.40
2018-06-23T14:57:47.464Z,26.50
2018-06-23T15:00:16.313Z,25.70
2018-06-23T15:02:44.564Z,26.60
2018-06-23T15:05:12.848Z,25.00
2018-06-23T15:07:41.080Z,24.50
2018-06-23T15:10:20.642Z,24.60
2018-06-23T15:13:00.264Z,25.50
2018-06-23T15:15:28.593Z,25.70
2018-06-23T15:17:56.921Z,26.10
2018-06-23T15:20:25.204Z,26.00
2018-06-23T15:22:53.749Z,25.70
2018-06-23T15:25:21.962Z,25.80
2018-06-23T15:27:50.162Z,26.00
2018-06-23T15:30:18.515Z,26.30
2018-06-23T15:32:46.700Z,26.70
2018-06-23T15:35:14.895Z,27.10
2018-06-23T15:37:43.187Z,26.60
2018-06-23T15:40:11.393Z,26.30
2018-06-23T15:42:39.648Z,27.30
2018-06-23T15:45:07.869Z,26.90
2018-06-23T15:47:45.059Z,27.10
2018-06-23T15:50:37.745Z,27.90
2018-06-23T15:56:04.401Z,26.50
2018-06-23T15:58:32.719Z,26.80
2018-06-23T16:01:00.927Z,26.10
2018-06-23T16:03:29.224Z,25.30
2018-06-23T16:05:57.517Z,25.30
2018-06-23T16:08:25.857Z,25.50
2018-06-23T16:10:54.269Z,26.20
2018-06-23T16:13:22.676Z,26.70
2018-06-23T16:15:50.891Z,26.10
2018-06-23T16:18:19.167Z,25.00
2018-06-23T16:20:47.496Z,25.20
2018-06-23T16:23:15.850Z,26.30
2018-06-23T16:25:43.882Z,25.60
2018-06-23T16:28:12.219Z,26.20
2018-06-23T16:30:40.481Z,26.90
2018-06-23T16:33:08.698Z,27.40
2018-06-23T16:35:36.909Z,27.70
2018-06-23T16:38:05.315Z,29.00
2018-06-23T16:40:33.505Z,29.90
2018-06-23T16:45:29.715Z,31.20
2018-06-23T16:47:57.984Z,31.40
2018-06-23T16:50:26.179Z,31.10
2018-06-23T16:52:54.405Z,30.70
2018-06-23T16:55:22.619Z,30.50
2018-06-23T16:57:50.772Z,29.60
2018-06-23T17:00:18.972Z,29.20
2018-06-23T17:02:47.168Z,28.60
2018-06-23T17:05:15.331Z,28.10
2018-06-23T17:07:43.493Z,27.50
2018-06-23T17:12:39.655Z,27.20
2018-06-23T17:15:07.842Z,28.20
2018-06-23T17:17:36.080Z,28.70
2018-06-23T17:20:04.291Z,29.50
2018-06-23T17:22:32.449Z,31.30
2018-06-23T17:25:00.616Z,31.90
2018-06-23T17:27:28.812Z,33.40
2018-06-23T17:29:56.963Z,35.00
2018-06-23T17:32:25.127Z,36.50
2018-06-23T17:34:53.808Z,36.70
2018-06-23T17:37:22.081Z,36.30
2018-06-23T17:42:18.176Z,37.00
2018-06-23T17:44:46.337Z,38.00
2018-06-23T17:47:14.516Z,39.00
2018-06-23T17:49:42.785Z,40.20
2018-06-23T17:52:11.009Z,39.80
2018-06-23T17:54:39.180Z,39.50
2018-06-23T17:57:07.373Z,39.60
2018-06-23T17:59:35.564Z,39.90
2018-06-23T18:02:03.793Z,39.50
2018-06-23T18:04:31.935Z,40.60
2018-06-23T18:07:00.142Z,41.10
2018-06-23T18:09:28.295Z,41.90
2018-06-23T18:14:24.414Z,43.50
2018-06-23T18:16:52.670Z,43.80
2018-06-23T18:19:20.856Z,44.30
2018-06-23T18:21:49.028Z,45.30
2018-06-23T18:24:17.248Z,46.80
2018-06-23T18:26:45.443Z,47.70
2018-06-23T18:29:13.706Z,48.50
2018-06-23T18:31:41.898Z,48.80
2018-06-23T18:34:10.089Z,49.20
2018-06-23T18:36:38.237Z,49.70
2018-06-23T18:39:08.392Z,50.20
2018-06-23T18:41:36.550Z,51.20
2018-06-23T18:44:04.744Z,51.20
2018-06-23T18:46:33.016Z,51.70
2018-06-23T18:49:01.163Z,52.40
2018-06-23T18:51:29.313Z,52.40
2018-06-23T18:53:57.473Z,52.90
2018-06-23T18:56:25.687Z,52.80
2018-06-23T18:58:53.981Z,52.90
2018-06-23T19:01:22.139Z,52.60
2018-06-23T19:03:50.415Z,52.70
2018-06-23T19:06:18.662Z,53.40
2018-06-23T19:08:46.906Z,54.60
2018-06-23T19:11:15.116Z,54.50
2018-06-23T19:13:43.272Z,55.20
2018-06-23T19:16:11.473Z,55.40
2018-06-23T19:18:39.689Z,56.20
2018-06-23T19:21:07.908Z,56.00
2018-06-23T19:23:36.086Z,56.40
2018-06-23T19:26:04.236Z,57.00
2018-06-23T19:28:32.420Z,57.30
2018-06-23T19:31:00.583Z,58.30
2018-06-23T19:33:28.725Z,58.50
2018-06-23T19:35:56.896Z,59.60
2018-06-23T19:38:25.201Z,59.70
2018-06-23T19:40:53.387Z,59.70
2018-06-23T19:45:49.491Z,61.20
2018-06-23T19:48:17.662Z,61.80
2018-06-23T19:50:45.844Z,60.80
2018-06-23T19:53:14.156Z,61.30
2018-06-23T19:55:42.319Z,61.80
2018-06-23T19:58:10.499Z,62.50
2018-06-23T20:00:38.704Z,62.90
2018-06-23T20:03:06.841Z,63.50
2018-06-23T20:05:35.012Z,64.00
2018-06-23T20:08:03.230Z,64.30
2018-06-23T20:10:31.400Z,64.80
2018-06-23T20:12:59.666Z,65.50
2018-06-23T20:15:27.948Z,66.40
2018-06-23T20:17:56.160Z,66.80
2018-06-23T20:20:24.384Z,67.70
2018-06-23T20:22:52.551Z,67.30
2018-06-23T20:25:20.721Z,67.80
2018-06-23T20:27:48.867Z,67.90
2018-06-23T20:30:17.052Z,68.70
2018-06-23T20:32:45.239Z,69.10
2018-06-23T20:35:13.410Z,69.00
2018-06-23T20:37:41.562Z,69.50
2018-06-23T20:40:09.747Z,69.50
2018-06-23T20:42:37.912Z,70.60
2018-06-23T20:45:06.419Z,70.70
2018-06-23T20:47:34.593Z,70.70
2018-06-23T20:50:02.723Z,70.40
2018-06-23T20:52:30.980Z,71.00
2018-06-23T20:54:59.145Z,71.50
2018-06-23T20:57:27.311Z,72.20
2018-06-23T20:59:55.479Z,72.70
2018-06-23T21:02:23.653Z,72.70
2018-06-23T21:04:51.811Z,72.60
2018-06-23T21:07:20.063Z,73.40
2018-06-23T21:09:48.182Z,73.50
2018-06-23T21:12:16.601Z,73.50
2018-06-23T21:14:44.739Z,73.80
2018-06-23T21:17:12.924Z,73.80
2018-06-23T21:19:41.352Z,73.30
2018-06-23T21:22:09.502Z,73.80
2018-06-23T21:24:37.656Z,73.90
2018-06-23T21:27:05.804Z,74.50
2018-06-23T21:29:33.966Z,74.80
2018-06-23T21:32:02.122Z,75.20
2018-06-23T21:34:30.269Z,75.80
2018-06-23T21:36:58.419Z,75.10
2018-06-23T21:39:26.575Z,75.50
2018-06-23T21:42:03.717Z,75.80
2018-06-23T21:44:32.840Z,76.00
2018-06-23T21:49:29.056Z,77.50
2018-06-23T21:51:57.216Z,76.90
2018-06-23T21:54:25.364Z,77.10
2018-06-23T21:56:53.516Z,78.30
2018-06-23T21:59:21.683Z,80.60
2018-06-23T22:01:49.856Z,80.90
2018-06-23T22:04:18.013Z,80.50
2018-06-23T22:06:46.175Z,80.30
2018-06-23T22:09:14.335Z,80.50
2018-06-23T22:11:42.542Z,80.20
2018-06-23T22:14:10.696Z,80.80
2018-06-23T22:16:38.897Z,81.30
2018-06-23T22:19:07.402Z,81.80
2018-06-23T22:21:35.615Z,82.00
2018-06-23T22:24:03.755Z,82.40
2018-06-23T22:26:31.907Z,82.00
2018-06-23T22:29:00.056Z,82.30
2018-06-23T22:31:28.201Z,82.10
2018-06-23T22:33:56.633Z,82.20
2018-06-23T22:36:24.786Z,82.70
2018-06-23T22:38:52.931Z,83.10
2018-06-23T22:41:21.143Z,85.00
2018-06-23T22:43:49.295Z,87.10
2018-06-23T22:46:17.452Z,88.40
2018-06-23T22:48:45.611Z,88.60
2018-06-23T22:51:13.788Z,88.40
2018-06-23T22:53:41.924Z,88.30
2018-06-23T22:56:10.076Z,88.10
2018-06-23T22:58:38.236Z,87.60
2018-06-23T23:01:06.446Z,87.60
2018-06-23T23:03:34.611Z,88.20
2018-06-23T23:06:02.758Z,88.80
2018-06-23T23:08:31.283Z,89.30
2018-06-23T23:10:59.440Z,89.90
2018-06-23T23:13:27.588Z,90.10
2018-06-23T23:15:55.761Z,90.10
2018-06-23T23:18:24.058Z,90.00
2018-06-23T23:20:52.205Z,90.00
2018-06-23T23:23:20.428Z,90.00
2018-06-23T23:25:48.638Z,90.00
2018-06-23T23:28:17.326Z,89.90
2018-06-23T23:30:45.489Z,90.10
2018-06-23T23:33:13.632Z,90.10
2018-06-23T23:38:09.707Z,89.80
2018-06-23T23:40:37.852Z,90.10
2018-06-23T23:43:05.995Z,90.30
2018-06-23T23:45:34.143Z,90.10
2018-06-23T23:48:02.292Z,89.70
2018-06-23T23:50:30.484Z,89.30
2018-06-23T23:52:58.700Z,88.80
2018-06-23T23:55:26.885Z,88.80
2018-06-23T23:57:55.036Z,88.90
